Time;durP1;ratioP1;P1;durP2;ratioP2;P2;SDS_P1;SDS_P2;PMS_P1;PMS_P2;Temp;Humidity;BMP_temperature;BMP_pressure;BME280_temperature;BME280_humidity;BME280_pressure;Samples;Min_cycle;Max_cycle;Signal;HPM_P1;HPM_P2
2023/09/27 00:01:33;;;;;;;9.02;3.05;;;22.10;99.90;;;;;;5018960;28;20237;-82
2023/09/27 00:04:04;;;;;;;10.60;3.15;;;22.30;99.90;;;;;;5031037;28;20687;-82
2023/09/27 00:06:35;;;;;;;11.88;3.03;;;22.50;99.90;;;;;;5031512;28;20211;-82
2023/09/27 00:09:07;;;;;;;9.88;2.38;;;22.50;99.90;;;;;;5031217;28;20691;-82
2023/09/27 00:11:38;;;;;;;5.30;2.47;;;22.60;99.90;;;;;;5021356;28;20735;-81
2023/09/27 00:14:11;;;;;;;6.20;2.83;;;22.80;99.90;;;;;;5024087;28;20243;-80
2023/09/27 00:16:42;;;;;;;6.88;3.10;;;22.90;99.90;;;;;;5019502;28;20197;-81
2023/09/27 00:19:13;;;;;;;7.70;2.90;;;23.10;99.90;;;;;;5031096;28;20193;-82
2023/09/27 00:21:44;;;;;;;6.70;3.40;;;23.10;99.90;;;;;;5030333;28;20201;-82
2023/09/27 00:24:15;;;;;;;7.72;3.20;;;23.00;99.90;;;;;;5031631;28;20211;-81
2023/09/27 00:26:46;;;;;;;6.90;3.00;;;22.90;99.90;;;;;;5015460;28;20200;-81
2023/09/27 00:29:19;;;;;;;5.18;3.60;;;22.90;99.90;;;;;;5011533;28;20209;-82
2023/09/27 00:31:49;;;;;;;7.35;4.22;;;22.90;99.90;;;;;;5011902;28;20221;-82
2023/09/27 00:34:20;;;;;;;8.98;5.05;;;23.00;99.90;;;;;;5027661;28;20197;-82
2023/09/27 00:36:51;;;;;;;9.13;4.90;;;23.00;99.90;;;;;;5030838;28;20194;-81
2023/09/27 00:39:22;;;;;;;7.25;4.85;;;23.10;99.90;;;;;;5021764;28;20202;-82
2023/09/27 00:41:52;;;;;;;9.05;5.53;;;23.30;99.90;;;;;;5040841;28;20220;-82
2023/09/27 00:44:25;;;;;;;10.75;5.50;;;23.40;99.90;;;;;;5051027;28;20203;-82
2023/09/27 00:46:56;;;;;;;9.93;5.72;;;23.40;99.90;;;;;;5030773;28;20208;-82
2023/09/27 00:49:28;;;;;;;7.32;4.93;;;23.40;99.90;;;;;;5030680;28;20285;-83
2023/09/27 00:52:00;;;;;;;9.05;5.10;;;23.50;99.90;;;;;;5030410;28;20707;-82
2023/09/27 00:54:32;;;;;;;9.43;5.05;;;23.60;99.90;;;;;;5030916;28;20656;-82
2023/09/27 00:57:05;;;;;;;8.88;4.95;;;23.60;99.90;;;;;;5032911;28;20671;-81
2023/09/27 00:59:43;;;;;;;8.07;5.20;;;23.70;99.90;;;;;;5023392;28;20194;-82
2023/09/27 01:02:14;;;;;;;9.35;5.35;;;23.90;99.90;;;;;;5027187;28;20560;-82
2023/09/27 01:04:45;;;;;;;9.38;5.90;;;24.10;99.90;;;;;;5033423;28;20568;-82
2023/09/27 01:07:16;;;;;;;8.57;6.03;;;24.10;99.90;;;;;;5032352;28;20194;-83
2023/09/27 01:09:47;;;;;;;7.50;5.25;;;24.10;99.90;;;;;;5015192;28;20552;-83
2023/09/27 01:12:17;;;;;;;8.68;6.22;;;24.30;99.90;;;;;;5014949;28;20222;-82
2023/09/27 01:14:50;;;;;;;10.52;6.30;;;24.40;99.90;;;;;;5024961;28;20216;-83
2023/09/27 01:17:21;;;;;;;8.95;6.50;;;24.30;99.90;;;;;;5034355;28;20259;-83
2023/09/27 01:19:52;;;;;;;8.82;5.97;;;24.40;99.90;;;;;;5030753;28;20568;-83
2023/09/27 01:22:22;;;;;;;9.00;6.53;;;24.40;99.90;;;;;;5021946;28;20212;-82
2023/09/27 01:24:56;;;;;;;9.15;6.28;;;24.60;99.90;;;;;;5024082;28;20664;-83
2023/09/27 01:27:27;;;;;;;9.20;5.97;;;24.80;99.90;;;;;;5034067;28;20186;-83
2023/09/27 01:29:58;;;;;;;8.68;5.97;;;24.80;99.90;;;;;;5034438;28;20232;-83
2023/09/27 01:32:29;;;;;;;7.70;6.30;;;25.00;99.90;;;;;;5048170;28;20201;-83
2023/09/27 01:35:00;;;;;;;9.57;6.03;;;25.20;99.90;;;;;;5039581;28;20255;-83
2023/09/27 01:37:31;;;;;;;8.73;6.00;;;25.20;99.90;;;;;;5032741;28;20209;-84
2023/09/27 01:40:07;;;;;;;8.95;6.05;;;25.00;99.90;;;;;;5034194;28;20660;-84
2023/09/27 01:42:43;;;;;;;8.05;6.10;;;25.00;99.90;;;;;;5033699;28;20611;-82
2023/09/27 01:45:14;;;;;;;7.57;5.68;;;25.10;99.90;;;;;;5033955;28;20204;-83
2023/09/27 01:47:45;;;;;;;9.02;6.00;;;24.90;99.90;;;;;;5035038;28;20202;-84
2023/09/27 01:50:18;;;;;;;10.30;6.00;;;24.90;99.90;;;;;;5013615;28;20240;-84
2023/09/27 01:52:49;;;;;;;6.45;5.78;;;25.10;99.90;;;;;;5014249;28;20210;-83
2023/09/27 01:55:22;;;;;;;6.95;6.22;;;25.40;99.90;;;;;;5027493;28;20201;-83
2023/09/27 01:57:56;;;;;;;8.35;6.40;;;25.40;99.90;;;;;;5035390;28;20215;-83
2023/09/27 02:00:27;;;;;;;6.35;5.30;;;25.40;99.90;;;;;;5050253;28;20219;-82
2023/09/27 02:02:59;;;;;;;11.00;5.65;;;25.30;99.90;;;;;;5044730;28;20272;-83
2023/09/27 02:05:31;;;;;;;7.68;5.10;;;25.40;99.90;;;;;;5048311;28;20205;-84
2023/09/27 02:08:01;;;;;;;8.20;4.80;;;25.30;99.90;;;;;;5035109;28;20197;-85
2023/09/27 02:10:34;;;;;;;10.13;5.25;;;25.20;99.90;;;;;;5027461;28;20226;-83
2023/09/27 02:13:05;;;;;;;10.43;4.32;;;25.40;99.90;;;;;;5014124;28;20229;-84
2023/09/27 02:15:35;;;;;;;7.60;4.00;;;25.50;99.90;;;;;;5031525;28;20197;-86
2023/09/27 02:18:06;;;;;;;6.93;3.50;;;25.70;99.90;;;;;;5033062;28;20197;-84
2023/09/27 02:20:37;;;;;;;7.78;3.30;;;25.60;99.90;;;;;;5033532;28;20211;-83
2023/09/27 02:23:08;;;;;;;6.88;3.53;;;25.50;99.90;;;;;;5044888;28;20207;-83
2023/09/27 02:25:41;;;;;;;6.65;4.18;;;25.30;99.90;;;;;;5052869;28;20223;-83
2023/09/27 02:28:11;;;;;;;5.60;3.83;;;25.20;99.90;;;;;;5034645;28;20220;-83
2023/09/27 02:30:42;;;;;;;6.78;3.92;;;25.40;99.90;;;;;;5034605;28;20221;-84
2023/09/27 02:33:13;;;;;;;5.88;3.60;;;25.50;99.90;;;;;;5037992;28;20202;-85
2023/09/27 02:35:44;;;;;;;6.30;3.67;;;25.50;99.90;;;;;;5029582;28;20255;-83
2023/09/27 02:38:15;;;;;;;5.88;3.10;;;25.60;99.90;;;;;;5033330;28;20215;-83
2023/09/27 02:40:47;;;;;;;5.00;3.03;;;25.70;99.90;;;;;;5050420;28;20204;-83
2023/09/27 02:43:18;;;;;;;3.42;2.65;;;25.90;99.90;;;;;;5043208;28;20645;-83
2023/09/27 02:45:49;;;;;;;6.55;2.55;;;26.00;99.90;;;;;;5029669;28;20683;-83
2023/09/27 02:48:20;;;;;;;8.00;2.78;;;26.10;99.90;;;;;;5034170;28;20283;-83
2023/09/27 02:50:52;;;;;;;6.07;3.03;;;26.20;99.90;;;;;;5033974;28;20218;-82
2023/09/27 02:53:23;;;;;;;5.95;2.33;;;26.20;99.90;;;;;;5014786;28;20601;-82
2023/09/27 02:55:55;;;;;;;6.78;2.42;;;26.10;99.90;;;;;;5016746;28;20202;-82
2023/09/27 02:58:26;;;;;;;5.28;2.10;;;26.10;99.90;;;;;;5034238;28;20204;-83
2023/09/27 03:00:57;;;;;;;3.40;2.28;;;25.90;99.90;;;;;;5033096;28;20255;-82
2023/09/27 03:03:28;;;;;;;4.28;2.00;;;25.90;99.90;;;;;;5033103;28;20197;-82
2023/09/27 03:05:58;;;;;;;4.80;2.25;;;25.70;99.90;;;;;;5031482;28;20289;-82
2023/09/27 03:08:29;;;;;;;6.00;2.35;;;25.40;99.90;;;;;;5022925;28;20197;-82
2023/09/27 03:11:06;;;;;;;4.38;2.15;;;25.30;99.90;;;;;;5033708;28;20228;-83
2023/09/27 03:13:37;;;;;;;3.53;1.90;;;25.40;99.90;;;;;;5034190;28;20233;-82
2023/09/27 03:16:08;;;;;;;5.35;2.38;;;25.50;99.90;;;;;;5029817;28;20194;-82
2023/09/27 03:18:39;;;;;;;5.15;2.28;;;25.40;99.90;;;;;;5011921;28;20274;-83
2023/09/27 03:21:10;;;;;;;7.65;2.30;;;25.20;99.90;;;;;;5017484;28;20204;-82
2023/09/27 03:23:40;;;;;;;7.20;2.50;;;25.20;99.90;;;;;;5012492;28;20276;-82
2023/09/27 03:26:13;;;;;;;6.95;2.40;;;25.00;99.90;;;;;;5016733;28;20561;-83
2023/09/27 03:28:48;;;;;;;6.63;2.08;;;25.00;99.90;;;;;;5029621;28;20217;-83
2023/09/27 03:31:19;;;;;;;6.70;1.90;;;25.00;99.90;;;;;;5025665;28;20304;-82
2023/09/27 03:33:50;;;;;;;3.95;1.90;;;24.80;99.90;;;;;;5025963;28;20198;-82
2023/09/27 03:36:21;;;;;;;5.65;2.03;;;24.90;99.90;;;;;;5011294;28;20205;-83
2023/09/27 03:38:53;;;;;;;5.65;1.92;;;24.70;99.90;;;;;;5024090;28;20197;-83
2023/09/27 03:41:28;;;;;;;8.27;2.17;;;24.70;99.90;;;;;;5033208;28;20201;-83
2023/09/27 03:43:58;;;;;;;3.78;1.55;;;24.50;99.90;;;;;;5031950;28;20571;-82
2023/09/27 03:46:30;;;;;;;7.43;2.03;;;24.60;99.90;;;;;;5031158;28;20560;-82
2023/09/27 03:49:00;;;;;;;4.70;1.80;;;24.60;99.90;;;;;;5039910;28;20211;-82
2023/09/27 03:51:31;;;;;;;3.17;1.58;;;24.80;99.90;;;;;;5030760;28;20235;-82
2023/09/27 03:54:03;;;;;;;4.95;2.03;;;24.90;99.90;;;;;;5030762;28;20197;-82
2023/09/27 03:56:36;;;;;;;3.72;1.67;;;25.00;99.90;;;;;;5030420;28;20197;-83
2023/09/27 03:59:07;;;;;;;6.05;2.15;;;25.00;99.90;;;;;;5031086;28;20215;-82
2023/09/27 04:01:37;;;;;;;6.93;1.95;;;25.10;99.90;;;;;;5031132;28;20664;-81
2023/09/27 04:04:08;;;;;;;5.10;2.05;;;25.20;99.90;;;;;;5034235;28;20222;-82
2023/09/27 04:06:40;;;;;;;5.53;1.77;;;25.20;99.90;;;;;;5031609;28;20603;-83
2023/09/27 04:09:10;;;;;;;7.53;1.90;;;25.00;99.90;;;;;;5029687;28;20672;-83
2023/09/27 04:11:43;;;;;;;4.95;2.17;;;25.10;99.90;;;;;;5025141;28;20295;-83
2023/09/27 04:14:14;;;;;;;5.75;1.70;;;25.10;99.90;;;;;;5025521;28;20229;-83
2023/09/27 04:16:45;;;;;;;5.88;2.03;;;25.00;99.90;;;;;;5030465;28;20568;-82
2023/09/27 04:19:16;;;;;;;4.57;1.90;;;25.10;99.90;;;;;;5026289;28;20189;-83
2023/09/27 04:21:46;;;;;;;10.38;2.00;;;25.10;99.90;;;;;;5036488;28;20205;-82
2023/09/27 04:24:17;;;;;;;4.85;1.80;;;25.00;99.90;;;;;;5030412;28;20212;-82
2023/09/27 04:26:50;;;;;;;5.03;2.08;;;24.90;99.90;;;;;;5029929;28;20193;-81
2023/09/27 04:29:20;;;;;;;9.30;2.50;;;24.80;99.90;;;;;;5029959;28;20221;-82
2023/09/27 04:31:51;;;;;;;6.72;2.20;;;24.60;99.90;;;;;;5032681;28;20229;-83
2023/09/27 04:34:23;;;;;;;4.95;2.00;;;24.50;99.90;;;;;;5022697;28;20205;-82
2023/09/27 04:36:54;;;;;;;6.93;2.28;;;24.40;99.90;;;;;;5034850;28;20197;-83
2023/09/27 04:39:27;;;;;;;10.32;2.33;;;24.10;99.90;;;;;;5034283;28;20362;-83
2023/09/27 04:41:59;;;;;;;8.27;1.80;;;24.10;99.90;;;;;;5022561;28;20657;-84
2023/09/27 04:44:30;;;;;;;4.43;2.15;;;24.10;99.90;;;;;;5019352;28;20201;-83
2023/09/27 04:47:01;;;;;;;5.93;2.03;;;24.10;99.90;;;;;;5032413;28;20576;-84
2023/09/27 04:49:31;;;;;;;5.95;2.20;;;24.00;99.90;;;;;;5034375;28;20208;-83
2023/09/27 04:52:03;;;;;;;6.25;2.20;;;23.90;99.90;;;;;;5021384;28;20248;-85
2023/09/27 04:54:33;;;;;;;7.28;2.35;;;23.90;99.90;;;;;;5028197;28;20202;-84
2023/09/27 04:57:06;;;;;;;5.93;2.20;;;24.00;99.90;;;;;;5034531;28;20694;-84
2023/09/27 04:59:37;;;;;;;12.98;2.53;;;23.80;99.90;;;;;;5033814;28;20193;-85
2023/09/27 05:02:07;;;;;;;6.40;2.20;;;23.80;99.90;;;;;;5033551;28;20231;-84
2023/09/27 05:04:38;;;;;;;6.43;2.30;;;23.70;99.90;;;;;;5029817;28;20190;-84
2023/09/27 05:07:09;;;;;;;6.05;2.20;;;23.50;99.90;;;;;;5014058;28;20209;-84
2023/09/27 05:09:40;;;;;;;8.07;2.17;;;23.30;99.90;;;;;;5016630;28;20725;-84
2023/09/27 05:12:14;;;;;;;7.72;2.13;;;23.20;99.90;;;;;;5028617;28;20239;-84
2023/09/27 05:14:45;;;;;;;6.40;2.30;;;23.10;99.90;;;;;;5053665;28;20196;-85
2023/09/27 05:17:16;;;;;;;6.70;2.17;;;23.10;99.90;;;;;;5054287;28;20706;-82
2023/09/27 05:19:48;;;;;;;4.68;2.10;;;22.90;99.90;;;;;;5048990;28;20205;-84
2023/09/27 05:22:19;;;;;;;5.88;2.08;;;23.00;99.90;;;;;;5034088;28;20235;-82
2023/09/27 05:24:50;;;;;;;2.88;1.90;;;23.00;99.90;;;;;;5032783;28;20216;-83
2023/09/27 05:27:22;;;;;;;4.95;2.10;;;22.90;99.90;;;;;;5033603;28;20576;-84
2023/09/27 05:29:53;;;;;;;4.95;2.00;;;22.90;99.90;;;;;;5044449;28;20215;-83
2023/09/27 05:32:24;;;;;;;6.07;2.45;;;22.90;99.90;;;;;;5058150;28;20236;-84
2023/09/27 05:34:55;;;;;;;5.45;2.45;;;22.90;99.90;;;;;;5056559;28;20239;-83
2023/09/27 05:37:28;;;;;;;6.15;2.28;;;22.80;99.90;;;;;;5044268;28;20193;-83
2023/09/27 05:39:59;;;;;;;6.95;2.05;;;22.90;99.90;;;;;;5036801;28;20207;-83
2023/09/27 05:42:33;;;;;;;5.65;1.90;;;22.80;99.90;;;;;;5032829;28;20197;-83
2023/09/27 05:45:04;;;;;;;4.32;1.80;;;22.80;99.90;;;;;;5034853;28;20203;-82
2023/09/27 05:47:35;;;;;;;4.78;2.05;;;22.50;99.90;;;;;;5028814;28;20194;-82
2023/09/27 05:50:06;;;;;;;4.10;1.70;;;22.50;99.90;;;;;;5029797;28;20606;-83
2023/09/27 05:52:38;;;;;;;6.18;2.00;;;22.50;99.90;;;;;;5035086;28;20240;-83
2023/09/27 05:55:09;;;;;;;6.90;1.98;;;22.60;99.90;;;;;;5029940;28;20221;-82
2023/09/27 05:57:42;;;;;;;4.53;2.15;;;22.60;99.90;;;;;;5032507;28;20197;-83
2023/09/27 06:00:23;;;;;;;5.65;1.80;;;22.70;99.90;;;;;;5014012;28;20212;-83
2023/09/27 06:02:54;;;;;;;4.47;2.20;;;22.70;99.90;;;;;;5030699;28;20194;-83
2023/09/27 06:05:25;;;;;;;4.53;2.10;;;22.60;99.90;;;;;;5030832;28;20589;-83
2023/09/27 06:07:57;;;;;;;7.72;2.15;;;22.60;99.90;;;;;;5031455;28;20564;-83
2023/09/27 06:10:27;;;;;;;6.30;2.10;;;22.60;99.90;;;;;;5031683;28;20194;-83
2023/09/27 06:13:00;;;;;;;7.15;2.20;;;22.60;99.90;;;;;;5028716;28;20253;-84
2023/09/27 06:15:34;;;;;;;5.45;2.20;;;22.60;99.90;;;;;;5033301;28;20200;-82
2023/09/27 06:18:06;;;;;;;3.80;2.03;;;22.50;99.90;;;;;;5033026;28;20571;-84
2023/09/27 06:20:38;;;;;;;5.93;2.20;;;22.50;99.90;;;;;;5029845;28;20189;-82
2023/09/27 06:23:09;;;;;;;6.40;3.47;;;22.50;99.90;;;;;;5027474;28;20244;-83
2023/09/27 06:25:45;;;;;;;5.72;2.58;;;22.50;99.90;;;;;;5033341;28;20248;-83
2023/09/27 06:28:19;;;;;;;6.45;2.50;;;22.40;99.90;;;;;;5033654;28;20652;-82
2023/09/27 06:30:49;;;;;;;4.18;2.13;;;22.40;99.90;;;;;;5031380;28;20224;-83
2023/09/27 06:33:20;;;;;;;3.63;2.17;;;22.40;99.90;;;;;;5030274;28;20222;-83
2023/09/27 06:35:52;;;;;;;4.25;2.40;;;22.40;99.90;;;;;;5015133;28;20204;-84
2023/09/27 06:38:21;;;;;;;6.70;2.40;;;22.30;99.90;;;;;;5042849;28;20251;-83
2023/09/27 06:40:52;;;;;;;6.70;2.42;;;22.40;99.90;;;;;;5037382;28;20251;-83
2023/09/27 06:43:29;;;;;;;5.13;2.30;;;22.30;99.90;;;;;;5033098;28;20205;-83
2023/09/27 06:46:01;;;;;;;5.30;2.40;;;22.30;99.90;;;;;;5027897;28;20204;-83
2023/09/27 06:48:32;;;;;;;7.78;2.60;;;22.30;99.90;;;;;;5023052;28;20203;-83
2023/09/27 06:51:03;;;;;;;6.88;2.38;;;22.30;99.90;;;;;;5021722;28;20200;-82
2023/09/27 06:53:34;;;;;;;6.68;2.72;;;22.20;99.90;;;;;;5019258;28;20217;-82
2023/09/27 06:56:06;;;;;;;6.15;2.40;;;22.30;99.90;;;;;;5049870;28;20278;-82
2023/09/27 06:58:40;;;;;;;7.20;2.72;;;22.20;99.90;;;;;;5034943;28;20205;-83
2023/09/27 07:01:13;;;;;;;4.43;2.30;;;22.20;99.90;;;;;;5049654;28;20274;-84
2023/09/27 07:03:44;;;;;;;5.00;2.15;;;22.10;99.90;;;;;;5024102;28;20658;-83
2023/09/27 07:06:14;;;;;;;5.40;2.63;;;22.20;99.90;;;;;;5018412;28;20197;-82
2023/09/27 07:08:52;;;;;;;5.90;2.40;;;22.10;99.90;;;;;;5032639;28;20205;-82
2023/09/27 07:11:23;;;;;;;7.75;2.85;;;21.90;99.90;;;;;;5032385;28;20209;-82
2023/09/27 07:13:56;;;;;;;4.53;2.45;;;21.80;99.90;;;;;;5025950;28;20236;-82
2023/09/27 07:16:29;;;;;;;7.97;2.53;;;21.80;99.90;;;;;;5028983;28;20192;-82
2023/09/27 07:19:00;;;;;;;5.88;2.60;;;21.70;99.90;;;;;;5036984;28;20185;-81
2023/09/27 07:21:31;;;;;;;6.07;2.00;;;21.70;99.90;;;;;;5033206;28;20707;-81
2023/09/27 07:24:03;;;;;;;7.65;2.83;;;21.60;99.90;;;;;;5018111;28;20201;-81
2023/09/27 07:26:34;;;;;;;6.40;2.22;;;21.70;99.90;;;;;;5016245;28;20611;-81
2023/09/27 07:29:07;;;;;;;4.97;2.13;;;21.70;99.90;;;;;;5028672;28;20204;-82
2023/09/27 07:31:38;;;;;;;6.20;2.30;;;21.70;99.90;;;;;;5031814;28;20201;-82
2023/09/27 07:34:09;;;;;;;5.43;2.42;;;21.60;99.90;;;;;;5018936;28;20619;-82
2023/09/27 07:36:40;;;;;;;4.90;1.92;;;21.60;99.90;;;;;;5021600;28;20202;-82
2023/09/27 07:39:11;;;;;;;8.23;2.70;;;21.50;99.90;;;;;;5026918;28;20200;-83
2023/09/27 07:41:44;;;;;;;5.20;2.17;;;21.50;99.90;;;;;;5028313;28;20201;-83
2023/09/27 07:44:17;;;;;;;3.95;2.10;;;21.50;99.90;;;;;;5029699;28;20656;-82
2023/09/27 07:46:48;;;;;;;6.75;2.53;;;21.40;99.90;;;;;;5022432;28;20194;-82
2023/09/27 07:49:19;;;;;;;6.43;2.28;;;21.40;99.90;;;;;;5027376;28;20200;-82
2023/09/27 07:51:51;;;;;;;5.20;2.58;;;21.40;99.90;;;;;;5014567;28;20196;-82
2023/09/27 07:54:23;;;;;;;5.32;1.80;;;21.30;99.90;;;;;;5012648;28;20209;-82
2023/09/27 07:56:55;;;;;;;4.78;2.00;;;21.30;99.90;;;;;;5019381;28;20193;-84
2023/09/27 07:59:28;;;;;;;7.53;1.88;;;21.30;99.90;;;;;;5025482;28;20248;-82
2023/09/27 08:01:58;;;;;;;4.32;2.10;;;21.30;99.90;;;;;;5032045;28;20208;-83
2023/09/27 08:04:29;;;;;;;5.80;1.90;;;21.30;99.90;;;;;;5031246;28;20300;-83
2023/09/27 08:07:00;;;;;;;3.50;1.90;;;21.30;99.90;;;;;;5027559;28;20209;-82
2023/09/27 08:09:31;;;;;;;6.65;1.85;;;21.30;99.90;;;;;;5029394;28;20649;-81
2023/09/27 08:12:03;;;;;;;6.35;2.10;;;21.30;99.90;;;;;;5030494;28;20193;-81
2023/09/27 08:14:36;;;;;;;7.32;2.28;;;21.20;99.90;;;;;;5040540;28;20204;-81
2023/09/27 08:17:07;;;;;;;5.80;1.98;;;21.10;99.90;;;;;;5034072;28;20676;-81
2023/09/27 08:19:38;;;;;;;6.25;2.20;;;21.10;99.90;;;;;;5029244;28;20201;-82
2023/09/27 08:22:09;;;;;;;8.15;2.28;;;21.10;99.90;;;;;;5030124;28;20221;-82
2023/09/27 08:24:40;;;;;;;6.65;2.55;;;21.10;99.90;;;;;;5030603;28;20525;-82
2023/09/27 08:27:10;;;;;;;6.40;2.45;;;21.10;99.90;;;;;;5021195;28;20190;-81
2023/09/27 08:29:44;;;;;;;10.30;2.88;;;21.10;99.90;;;;;;5029142;28;20543;-82
2023/09/27 08:32:15;;;;;;;5.85;2.42;;;21.10;99.90;;;;;;5029479;28;20193;-81
2023/09/27 08:34:46;;;;;;;8.32;2.47;;;21.00;99.90;;;;;;5028135;28;20577;-81
2023/09/27 08:37:17;;;;;;;6.75;2.45;;;21.10;99.90;;;;;;5026446;28;20539;-81
2023/09/27 08:39:48;;;;;;;6.45;2.22;;;21.00;99.90;;;;;;5029153;28;20348;-82
2023/09/27 08:42:19;;;;;;;5.30;2.10;;;21.00;99.90;;;;;;5030786;28;20189;-83
2023/09/27 08:44:54;;;;;;;6.05;2.65;;;21.00;99.90;;;;;;5025185;28;20190;-81
2023/09/27 08:47:26;;;;;;;6.45;2.65;;;21.00;99.90;;;;;;5029968;28;20662;-81
2023/09/27 08:49:58;;;;;;;6.85;2.38;;;21.10;99.90;;;;;;5031019;28;20208;-82
2023/09/27 08:52:29;;;;;;;7.32;2.55;;;21.10;99.90;;;;;;5027185;28;20190;-82
2023/09/27 08:55:00;;;;;;;5.63;2.42;;;21.10;99.90;;;;;;5030896;28;20256;-82
2023/09/27 08:57:32;;;;;;;4.72;2.10;;;21.10;99.90;;;;;;5016561;28;20216;-81
2023/09/27 09:00:13;;;;;;;5.82;2.30;;;21.10;99.90;;;;;;5017815;28;20224;-82
2023/09/27 09:02:48;;;;;;;10.13;2.80;;;21.10;99.90;;;;;;5017151;28;20198;-82
2023/09/27 09:05:20;;;;;;;4.78;2.30;;;21.10;99.90;;;;;;5012703;28;20202;-83
2023/09/27 09:07:51;;;;;;;8.38;2.50;;;21.20;99.90;;;;;;5017038;28;20220;-82
2023/09/27 09:10:22;;;;;;;7.03;2.20;;;21.20;99.90;;;;;;5021742;28;20292;-82
2023/09/27 09:12:54;;;;;;;9.60;2.65;;;21.20;99.90;;;;;;5019408;28;20577;-83
2023/09/27 09:15:40;;;;;;;8.02;2.42;;;21.20;99.90;;;;;;5031142;28;20205;-83
2023/09/27 09:18:14;;;;;;;6.18;2.60;;;21.10;99.90;;;;;;5030390;28;20250;-83
2023/09/27 09:20:57;;;;;;;6.43;2.63;;;21.20;99.90;;;;;;5032838;28;20232;-82
2023/09/27 09:23:35;;;;;;;6.88;2.70;;;21.20;99.90;;;;;;5033900;28;20205;-82
2023/09/27 09:26:09;;;;;;;10.45;3.28;;;21.10;99.90;;;;;;5034081;28;20193;-82
2023/09/27 09:28:56;;;;;;;12.63;3.50;;;21.20;99.90;;;;;;5033860;28;20262;-83
2023/09/27 09:31:30;;;;;;;8.25;3.10;;;21.20;99.90;;;;;;5023359;28;20658;-83
2023/09/27 09:34:08;;;;;;;8.75;3.03;;;21.20;99.90;;;;;;5033856;28;20221;-81
2023/09/27 09:36:39;;;;;;;7.97;2.80;;;21.20;99.90;;;;;;5033869;28;20566;-82
2023/09/27 09:39:13;;;;;;;9.00;2.75;;;21.20;99.90;;;;;;5032246;28;20201;-82
2023/09/27 09:41:48;;;;;;;7.18;2.90;;;21.20;99.90;;;;;;5030864;28;20228;-83
2023/09/27 09:44:22;;;;;;;8.88;2.60;;;21.20;99.90;;;;;;5023627;28;20200;-82
2023/09/27 09:46:57;;;;;;;11.25;2.60;;;21.20;99.90;;;;;;5033205;28;20209;-82
2023/09/27 09:49:28;;;;;;;8.90;2.35;;;21.20;99.90;;;;;;5033640;28;20201;-81
2023/09/27 09:52:00;;;;;;;8.75;2.97;;;21.20;99.90;;;;;;5027480;28;20223;-80
2023/09/27 09:54:41;;;;;;;7.25;2.40;;;21.10;99.90;;;;;;5032970;28;20355;-80
2023/09/27 09:57:14;;;;;;;7.72;2.55;;;21.10;99.90;;;;;;5026181;28;20194;-81
2023/09/27 10:00:00;;;;;;;7.40;2.58;;;21.10;99.90;;;;;;5013313;28;20212;-81
2023/09/27 10:02:41;;;;;;;9.13;2.70;;;21.00;99.90;;;;;;5043271;28;20605;-81
2023/09/27 10:05:14;;;;;;;7.47;2.20;;;21.00;99.90;;;;;;5052835;28;20205;-81
2023/09/27 10:07:46;;;;;;;11.35;2.78;;;20.90;99.90;;;;;;5012973;28;20200;-81
2023/09/27 10:10:19;;;;;;;8.98;2.45;;;20.90;99.90;;;;;;5029118;28;20213;-82
2023/09/27 10:12:52;;;;;;;6.60;2.72;;;20.80;99.90;;;;;;5032499;28;20259;-80
2023/09/27 10:15:24;;;;;;;8.30;2.40;;;20.80;99.90;;;;;;5032503;28;20201;-81
2023/09/27 10:18:21;;;;;;;6.72;2.50;;;20.80;99.90;;;;;;5025458;28;20198;-81
2023/09/27 10:21:09;;;;;;;8.98;2.53;;;20.80;99.90;;;;;;5012475;28;20586;-82
2023/09/27 10:23:55;;;;;;;7.22;2.65;;;20.80;99.90;;;;;;5023879;28;20205;-82
2023/09/27 10:26:36;;;;;;;7.38;2.63;;;20.70;99.90;;;;;;5033036;28;20197;-81
2023/09/27 10:29:16;;;;;;;7.20;2.78;;;20.70;99.90;;;;;;5032251;28;20664;-81
2023/09/27 10:32:20;;;;;;;7.18;2.90;;;20.70;99.90;;;;;;5032453;28;20251;-81
2023/09/27 10:34:56;;;;;;;7.50;2.78;;;20.60;99.90;;;;;;5033223;28;20225;-79
2023/09/27 10:38:00;;;;;;;11.18;2.90;;;20.60;99.90;;;;;;5052442;28;20196;-81
2023/09/27 10:40:42;;;;;;;8.43;2.70;;;20.70;99.90;;;;;;5038931;28;20197;-81
2023/09/27 10:43:13;;;;;;;7.00;2.55;;;20.70;99.90;;;;;;5031812;28;20197;-81
2023/09/27 10:45:43;;;;;;;5.38;2.25;;;20.60;99.90;;;;;;5032248;28;20576;-81
2023/09/27 10:48:21;;;;;;;6.97;2.50;;;20.60;99.90;;;;;;5017662;28;20198;-81
2023/09/27 10:50:57;;;;;;;8.65;2.67;;;20.60;99.90;;;;;;5012185;28;20229;-82
2023/09/27 10:53:28;;;;;;;6.93;2.53;;;20.60;99.90;;;;;;5028350;28;20271;-81
2023/09/27 10:55:59;;;;;;;6.70;2.83;;;20.50;99.90;;;;;;5031236;28;20193;-81
2023/09/27 10:58:29;;;;;;;6.97;2.30;;;20.60;99.90;;;;;;5013421;28;20567;-81
2023/09/27 11:01:04;;;;;;;7.93;2.40;;;20.60;99.90;;;;;;5012345;28;20206;-82
2023/09/27 11:03:35;;;;;;;8.85;2.60;;;20.60;99.90;;;;;;5025777;28;20204;-81
2023/09/27 11:06:15;;;;;;;7.30;2.25;;;20.50;99.90;;;;;;5031616;28;20201;-81
2023/09/27 11:08:46;;;;;;;3.92;1.85;;;20.50;99.90;;;;;;5013892;28;20221;-81
2023/09/27 11:11:17;;;;;;;4.72;2.10;;;20.50;99.90;;;;;;5031502;28;20206;-81
2023/09/27 11:13:48;;;;;;;6.60;2.42;;;20.50;99.90;;;;;;5030129;28;20287;-81
2023/09/27 11:16:19;;;;;;;6.13;2.15;;;20.60;99.90;;;;;;5031100;28;20198;-81
2023/09/27 11:18:51;;;;;;;6.13;2.00;;;20.60;99.90;;;;;;5019581;28;20257;-81
2023/09/27 11:21:25;;;;;;;5.82;2.05;;;20.50;99.90;;;;;;5031181;28;20213;-81
2023/09/27 11:23:57;;;;;;;5.40;1.90;;;20.50;99.90;;;;;;5030338;28;20215;-81
2023/09/27 11:26:28;;;;;;;6.90;1.98;;;20.50;99.90;;;;;;5031997;28;20201;-81
2023/09/27 11:29:01;;;;;;;5.60;2.10;;;20.50;99.90;;;;;;5027377;28;20193;-81
2023/09/27 11:31:32;;;;;;;6.32;1.98;;;20.50;99.90;;;;;;5029404;28;20202;-81
2023/09/27 11:34:16;;;;;;;7.70;2.30;;;20.50;99.90;;;;;;5016799;28;20633;-81
2023/09/27 11:36:51;;;;;;;4.53;2.10;;;20.50;99.90;;;;;;5031636;28;20201;-81
2023/09/27 11:39:23;;;;;;;8.00;2.17;;;20.40;99.90;;;;;;5031045;28;20193;-82
2023/09/27 11:41:58;;;;;;;5.30;1.90;;;20.50;99.90;;;;;;5030858;28;20197;-82
2023/09/27 11:44:29;;;;;;;6.70;2.05;;;20.50;99.90;;;;;;5026869;28;20205;-81
2023/09/27 11:47:10;;;;;;;7.53;2.33;;;20.50;99.90;;;;;;5011728;28;20206;-81
2023/09/27 11:49:41;;;;;;;5.25;1.75;;;20.50;99.90;;;;;;5030253;28;20205;-82
2023/09/27 11:52:13;;;;;;;5.30;1.85;;;20.40;99.90;;;;;;5030833;28;20208;-81
2023/09/27 11:54:45;;;;;;;6.55;2.22;;;20.40;99.90;;;;;;5029348;28;20225;-81
2023/09/27 11:57:15;;;;;;;8.38;2.17;;;20.40;99.90;;;;;;5030855;28;20216;-82
2023/09/27 11:59:46;;;;;;;7.38;2.28;;;20.50;99.90;;;;;;5025881;28;20213;-82
2023/09/27 12:02:18;;;;;;;6.07;1.83;;;20.40;99.90;;;;;;5030954;28;20247;-82
2023/09/27 12:04:51;;;;;;;8.05;2.15;;;20.40;99.90;;;;;;5029190;28;20678;-82
2023/09/27 12:07:24;;;;;;;6.18;2.15;;;20.50;99.90;;;;;;5048353;28;20223;-82
2023/09/27 12:09:56;;;;;;;5.47;1.83;;;20.50;99.90;;;;;;5036086;28;20575;-82
2023/09/27 12:12:27;;;;;;;7.40;1.80;;;20.50;99.90;;;;;;5032748;28;20217;-82
2023/09/27 12:14:58;;;;;;;4.45;1.55;;;20.50;99.90;;;;;;5013196;28;20253;-81
2023/09/27 12:17:30;;;;;;;5.47;1.63;;;20.50;99.90;;;;;;5019795;28;20213;-81
2023/09/27 12:20:01;;;;;;;6.10;1.77;;;20.50;99.90;;;;;;5031112;28;20288;-81
2023/09/27 12:22:33;;;;;;;6.72;2.30;;;20.50;99.90;;;;;;5031904;28;20232;-82
2023/09/27 12:25:05;;;;;;;5.93;1.75;;;20.40;99.90;;;;;;5019827;28;20571;-82
2023/09/27 12:27:37;;;;;;;7.93;1.83;;;20.40;99.90;;;;;;5016673;28;20735;-82
2023/09/27 12:30:08;;;;;;;5.75;1.67;;;20.40;99.90;;;;;;5029172;28;20204;-82
2023/09/27 12:32:39;;;;;;;4.53;1.60;;;20.50;99.90;;;;;;5031662;28;20551;-81
2023/09/27 12:35:10;;;;;;;6.32;1.98;;;20.40;99.90;;;;;;5032895;28;20229;-81
2023/09/27 12:37:43;;;;;;;5.25;2.03;;;20.40;99.90;;;;;;5029252;28;20212;-81
2023/09/27 12:40:14;;;;;;;7.68;1.90;;;20.40;99.90;;;;;;5022016;28;20559;-81
2023/09/27 12:42:45;;;;;;;7.15;1.80;;;20.40;99.90;;;;;;5011512;28;20208;-81
2023/09/27 12:45:16;;;;;;;7.85;1.98;;;20.40;99.90;;;;;;5022051;28;20212;-80
2023/09/27 12:47:47;;;;;;;5.40;1.67;;;20.40;99.90;;;;;;5030368;28;20198;-80
2023/09/27 12:50:20;;;;;;;6.95;1.90;;;20.40;99.90;;;;;;5028648;28;20205;-81
2023/09/27 12:52:53;;;;;;;7.70;2.00;;;20.40;99.90;;;;;;5032579;28;20216;-81
2023/09/27 12:55:24;;;;;;;7.82;2.05;;;20.40;99.90;;;;;;5035234;28;20221;-82
2023/09/27 12:57:54;;;;;;;5.95;2.08;;;20.40;99.90;;;;;;5033369;28;20204;-83
2023/09/27 13:00:25;;;;;;;10.50;2.40;;;20.30;99.90;;;;;;5035185;28;20201;-80
2023/09/27 13:02:57;;;;;;;8.07;2.38;;;20.30;99.90;;;;;;5035025;28;20209;-81
2023/09/27 13:05:28;;;;;;;6.43;1.77;;;20.30;99.90;;;;;;5035547;28;20202;-82
2023/09/27 13:08:00;;;;;;;6.85;2.20;;;20.30;99.90;;;;;;5037210;28;20576;-81
2023/09/27 13:10:32;;;;;;;6.00;2.28;;;20.30;99.90;;;;;;5055637;28;20197;-82
2023/09/27 13:13:03;;;;;;;7.15;2.17;;;20.30;99.90;;;;;;5036070;28;20221;-82